sensor_id;sensor_type;location;lat;lon;timestamp;P1;durP1;ratioP1;P2;durP2;ratioP2
75054;SDS011;63636;44.746;10.488;2022-09-21T00:00:33;7.18;;;3.20;;
75054;SDS011;63636;44.746;10.488;2022-09-21T00:02:59;6.22;;;3.50;;
75054;SDS011;63636;44.746;10.488;2022-09-21T00:05:24;5.75;;;3.47;;
75054;SDS011;63636;44.746;10.488;2022-09-21T00:07:50;6.22;;;3.60;;
75054;SDS011;63636;44.746;10.488;2022-09-21T00:10:17;6.47;;;3.63;;
75054;SDS011;63636;44.746;10.488;2022-09-21T00:12:44;6.47;;;3.45;;
75054;SDS011;63636;44.746;10.488;2022-09-21T00:15:12;6.30;;;3.47;;
75054;SDS011;63636;44.746;10.488;2022-09-21T00:17:38;6.15;;;3.47;;
75054;SDS011;63636;44.746;10.488;2022-09-21T00:20:04;6.93;;;3.40;;
75054;SDS011;63636;44.746;10.488;2022-09-21T00:22:33;7.25;;;3.55;;
75054;SDS011;63636;44.746;10.488;2022-09-21T00:24:59;6.57;;;3.85;;
75054;SDS011;63636;44.746;10.488;2022-09-21T00:27:29;7.03;;;4.25;;
75054;SDS011;63636;44.746;10.488;2022-09-21T00:29:55;8.02;;;4.40;;
75054;SDS011;63636;44.746;10.488;2022-09-21T00:32:20;10.90;;;4.82;;
75054;SDS011;63636;44.746;10.488;2022-09-21T00:34:46;10.00;;;4.53;;
75054;SDS011;63636;44.746;10.488;2022-09-21T00:37:11;8.80;;;4.15;;
75054;SDS011;63636;44.746;10.488;2022-09-21T00:39:37;9.35;;;4.40;;
75054;SDS011;63636;44.746;10.488;2022-09-21T00:42:08;12.77;;;5.10;;
75054;SDS011;63636;44.746;10.488;2022-09-21T00:44:35;10.27;;;4.40;;
75054;SDS011;63636;44.746;10.488;2022-09-21T00:47:02;8.77;;;4.68;;
75054;SDS011;63636;44.746;10.488;2022-09-21T00:49:28;7.78;;;4.53;;
75054;SDS011;63636;44.746;10.488;2022-09-21T00:51:55;8.23;;;4.45;;
75054;SDS011;63636;44.746;10.488;2022-09-21T00:54:26;8.23;;;4.18;;
75054;SDS011;63636;44.746;10.488;2022-09-21T00:56:53;9.10;;;4.00;;
75054;SDS011;63636;44.746;10.488;2022-09-21T00:59:19;7.57;;;4.20;;
75054;SDS011;63636;44.746;10.488;2022-09-21T01:01:45;7.57;;;3.95;;
75054;SDS011;63636;44.746;10.488;2022-09-21T01:04:11;9.27;;;4.00;;
75054;SDS011;63636;44.746;10.488;2022-09-21T01:06:37;6.18;;;4.10;;
75054;SDS011;63636;44.746;10.488;2022-09-21T01:09:04;7.30;;;4.20;;
75054;SDS011;63636;44.746;10.488;2022-09-21T01:11:34;7.72;;;4.30;;
75054;SDS011;63636;44.746;10.488;2022-09-21T01:21:48;9.32;;;5.10;;
75054;SDS011;63636;44.746;10.488;2022-09-21T01:27:08;9.23;;;5.20;;
75054;SDS011;63636;44.746;10.488;2022-09-21T01:29:43;9.85;;;4.85;;
75054;SDS011;63636;44.746;10.488;2022-09-21T01:32:13;8.48;;;4.60;;
75054;SDS011;63636;44.746;10.488;2022-09-21T01:37:19;8.32;;;5.00;;
75054;SDS011;63636;44.746;10.488;2022-09-21T01:39:47;8.25;;;4.50;;
75054;SDS011;63636;44.746;10.488;2022-09-21T01:42:14;7.85;;;4.50;;
75054;SDS011;63636;44.746;10.488;2022-09-21T01:44:41;8.48;;;4.65;;
75054;SDS011;63636;44.746;10.488;2022-09-21T01:47:09;9.27;;;4.43;;
75054;SDS011;63636;44.746;10.488;2022-09-21T01:49:37;7.95;;;4.28;;
75054;SDS011;63636;44.746;10.488;2022-09-21T01:52:10;7.35;;;4.38;;
75054;SDS011;63636;44.746;10.488;2022-09-21T01:54:38;7.38;;;4.15;;
75054;SDS011;63636;44.746;10.488;2022-09-21T01:57:10;8.80;;;4.75;;
75054;SDS011;63636;44.746;10.488;2022-09-21T02:02:12;8.93;;;5.15;;
75054;SDS011;63636;44.746;10.488;2022-09-21T02:04:39;8.60;;;5.35;;
75054;SDS011;63636;44.746;10.488;2022-09-21T02:07:05;8.43;;;4.93;;
75054;SDS011;63636;44.746;10.488;2022-09-21T02:09:31;9.15;;;5.45;;
75054;SDS011;63636;44.746;10.488;2022-09-21T02:11:57;11.18;;;6.30;;
75054;SDS011;63636;44.746;10.488;2022-09-21T02:14:24;8.40;;;5.78;;
75054;SDS011;63636;44.746;10.488;2022-09-21T02:16:53;11.15;;;6.10;;
75054;SDS011;63636;44.746;10.488;2022-09-21T02:26:58;10.88;;;5.80;;
75054;SDS011;63636;44.746;10.488;2022-09-21T02:34:43;10.18;;;5.50;;
75054;SDS011;63636;44.746;10.488;2022-09-21T02:39:57;9.77;;;6.05;;
75054;SDS011;63636;44.746;10.488;2022-09-21T02:42:26;12.30;;;7.10;;
75054;SDS011;63636;44.746;10.488;2022-09-21T02:44:57;13.40;;;6.88;;
75054;SDS011;63636;44.746;10.488;2022-09-21T02:47:48;11.75;;;6.53;;
75054;SDS011;63636;44.746;10.488;2022-09-21T02:50:14;9.57;;;6.78;;
75054;SDS011;63636;44.746;10.488;2022-09-21T02:52:43;8.27;;;5.90;;
75054;SDS011;63636;44.746;10.488;2022-09-21T02:55:09;11.10;;;5.65;;
75054;SDS011;63636;44.746;10.488;2022-09-21T02:57:35;9.35;;;6.30;;
75054;SDS011;63636;44.746;10.488;2022-09-21T03:00:02;9.98;;;5.78;;
75054;SDS011;63636;44.746;10.488;2022-09-21T03:02:35;9.40;;;5.60;;
75054;SDS011;63636;44.746;10.488;2022-09-21T03:05:01;9.00;;;5.70;;
75054;SDS011;63636;44.746;10.488;2022-09-21T03:07:27;8.43;;;5.10;;
75054;SDS011;63636;44.746;10.488;2022-09-21T03:09:52;9.98;;;4.93;;
75054;SDS011;63636;44.746;10.488;2022-09-21T03:12:19;9.93;;;4.47;;
75054;SDS011;63636;44.746;10.488;2022-09-21T03:14:45;8.23;;;3.92;;
75054;SDS011;63636;44.746;10.488;2022-09-21T03:17:10;8.18;;;3.90;;
75054;SDS011;63636;44.746;10.488;2022-09-21T03:19:36;6.18;;;3.80;;
75054;SDS011;63636;44.746;10.488;2022-09-21T03:22:01;8.30;;;4.13;;
75054;SDS011;63636;44.746;10.488;2022-09-21T03:24:27;7.13;;;4.03;;
75054;SDS011;63636;44.746;10.488;2022-09-21T03:27:12;8.20;;;4.18;;
75054;SDS011;63636;44.746;10.488;2022-09-21T03:29:38;10.32;;;4.53;;
75054;SDS011;63636;44.746;10.488;2022-09-21T03:32:03;7.47;;;4.20;;
75054;SDS011;63636;44.746;10.488;2022-09-21T03:34:29;10.30;;;4.75;;
75054;SDS011;63636;44.746;10.488;2022-09-21T03:36:57;8.77;;;5.07;;
75054;SDS011;63636;44.746;10.488;2022-09-21T03:39:22;10.63;;;5.22;;
75054;SDS011;63636;44.746;10.488;2022-09-21T03:41:48;12.02;;;5.60;;
75054;SDS011;63636;44.746;10.488;2022-09-21T03:44:14;9.88;;;5.70;;
75054;SDS011;63636;44.746;10.488;2022-09-21T03:46:42;9.48;;;5.60;;
75054;SDS011;63636;44.746;10.488;2022-09-21T03:49:07;10.02;;;5.88;;
75054;SDS011;63636;44.746;10.488;2022-09-21T03:51:33;9.15;;;6.38;;
75054;SDS011;63636;44.746;10.488;2022-09-21T03:53:58;10.45;;;6.40;;
75054;SDS011;63636;44.746;10.488;2022-09-21T03:56:24;12.02;;;6.00;;
75054;SDS011;63636;44.746;10.488;2022-09-21T03:58:49;12.93;;;6.32;;
75054;SDS011;63636;44.746;10.488;2022-09-21T04:01:15;11.10;;;6.03;;
75054;SDS011;63636;44.746;10.488;2022-09-21T04:03:40;11.63;;;5.97;;
75054;SDS011;63636;44.746;10.488;2022-09-21T04:06:09;10.23;;;6.40;;
75054;SDS011;63636;44.746;10.488;2022-09-21T04:08:36;11.57;;;6.60;;
75054;SDS011;63636;44.746;10.488;2022-09-21T04:11:07;11.25;;;6.03;;
75054;SDS011;63636;44.746;10.488;2022-09-21T04:13:33;11.85;;;5.88;;
75054;SDS011;63636;44.746;10.488;2022-09-21T04:15:59;13.57;;;6.13;;
75054;SDS011;63636;44.746;10.488;2022-09-21T04:18:25;13.43;;;5.93;;
75054;SDS011;63636;44.746;10.488;2022-09-21T04:20:50;12.55;;;6.15;;
75054;SDS011;63636;44.746;10.488;2022-09-21T04:23:16;11.35;;;6.13;;
75054;SDS011;63636;44.746;10.488;2022-09-21T04:25:42;11.20;;;5.68;;
75054;SDS011;63636;44.746;10.488;2022-09-21T04:28:07;10.65;;;5.80;;
75054;SDS011;63636;44.746;10.488;2022-09-21T04:30:33;11.82;;;5.93;;
75054;SDS011;63636;44.746;10.488;2022-09-21T04:32:59;9.27;;;5.90;;
75054;SDS011;63636;44.746;10.488;2022-09-21T04:35:25;11.27;;;6.45;;
75054;SDS011;63636;44.746;10.488;2022-09-21T04:37:53;9.38;;;5.72;;
75054;SDS011;63636;44.746;10.488;2022-09-21T04:40:18;11.85;;;5.68;;
75054;SDS011;63636;44.746;10.488;2022-09-21T04:42:44;13.45;;;5.95;;
75054;SDS011;63636;44.746;10.488;2022-09-21T04:45:14;12.82;;;6.30;;
75054;SDS011;63636;44.746;10.488;2022-09-21T04:47:40;10.45;;;6.45;;
75054;SDS011;63636;44.746;10.488;2022-09-21T04:50:05;12.55;;;6.68;;
75054;SDS011;63636;44.746;10.488;2022-09-21T04:52:31;11.38;;;6.07;;
75054;SDS011;63636;44.746;10.488;2022-09-21T04:54:56;10.95;;;5.80;;
75054;SDS011;63636;44.746;10.488;2022-09-21T04:57:22;12.15;;;6.18;;
75054;SDS011;63636;44.746;10.488;2022-09-21T04:59:50;10.95;;;5.70;;
75054;SDS011;63636;44.746;10.488;2022-09-21T05:02:16;12.15;;;5.53;;
75054;SDS011;63636;44.746;10.488;2022-09-21T05:04:42;9.63;;;5.53;;
75054;SDS011;63636;44.746;10.488;2022-09-21T05:07:11;14.02;;;5.75;;
75054;SDS011;63636;44.746;10.488;2022-09-21T05:09:39;11.75;;;5.90;;
75054;SDS011;63636;44.746;10.488;2022-09-21T05:12:25;9.90;;;5.10;;
75054;SDS011;63636;44.746;10.488;2022-09-21T05:14:51;8.82;;;5.45;;
75054;SDS011;63636;44.746;10.488;2022-09-21T05:17:18;12.45;;;5.75;;
75054;SDS011;63636;44.746;10.488;2022-09-21T05:19:48;9.90;;;5.40;;
75054;SDS011;63636;44.746;10.488;2022-09-21T05:22:16;11.35;;;5.55;;
75054;SDS011;63636;44.746;10.488;2022-09-21T05:24:44;13.52;;;6.18;;
75054;SDS011;63636;44.746;10.488;2022-09-21T05:27:10;12.25;;;5.65;;
75054;SDS011;63636;44.746;10.488;2022-09-21T05:29:35;12.02;;;5.70;;
75054;SDS011;63636;44.746;10.488;2022-09-21T05:39:17;10.50;;;4.55;;
75054;SDS011;63636;44.746;10.488;2022-09-21T05:41:43;8.00;;;4.47;;
75054;SDS011;63636;44.746;10.488;2022-09-21T05:44:10;9.95;;;3.92;;
75054;SDS011;63636;44.746;10.488;2022-09-21T05:49:05;7.25;;;3.40;;
75054;SDS011;63636;44.746;10.488;2022-09-21T06:04:19;6.82;;;3.35;;
75054;SDS011;63636;44.746;10.488;2022-09-21T06:06:44;7.93;;;3.60;;
75054;SDS011;63636;44.746;10.488;2022-09-21T06:09:10;6.72;;;3.33;;
75054;SDS011;63636;44.746;10.488;2022-09-21T06:11:35;7.22;;;3.33;;
75054;SDS011;63636;44.746;10.488;2022-09-21T06:14:01;8.98;;;4.13;;
75054;SDS011;63636;44.746;10.488;2022-09-21T06:16:35;11.13;;;5.85;;
75054;SDS011;63636;44.746;10.488;2022-09-21T06:19:00;12.43;;;6.55;;
75054;SDS011;63636;44.746;10.488;2022-09-21T06:21:26;12.82;;;6.95;;
75054;SDS011;63636;44.746;10.488;2022-09-21T06:23:51;11.40;;;6.72;;
75054;SDS011;63636;44.746;10.488;2022-09-21T06:26:17;11.70;;;6.93;;
75054;SDS011;63636;44.746;10.488;2022-09-21T06:28:42;12.52;;;6.43;;
75054;SDS011;63636;44.746;10.488;2022-09-21T06:31:08;11.85;;;6.25;;
75054;SDS011;63636;44.746;10.488;2022-09-21T06:33:33;14.30;;;6.47;;
75054;SDS011;63636;44.746;10.488;2022-09-21T06:36:02;10.65;;;5.82;;
75054;SDS011;63636;44.746;10.488;2022-09-21T06:38:27;11.13;;;5.97;;
75054;SDS011;63636;44.746;10.488;2022-09-21T06:40:54;11.02;;;5.43;;
75054;SDS011;63636;44.746;10.488;2022-09-21T06:43:20;7.07;;;3.88;;
75054;SDS011;63636;44.746;10.488;2022-09-21T06:45:52;6.93;;;3.85;;
75054;SDS011;63636;44.746;10.488;2022-09-21T06:48:18;6.15;;;3.65;;
75054;SDS011;63636;44.746;10.488;2022-09-21T06:50:44;7.13;;;3.00;;
75054;SDS011;63636;44.746;10.488;2022-09-21T06:53:09;6.03;;;2.75;;
75054;SDS011;63636;44.746;10.488;2022-09-21T06:55:35;5.22;;;2.60;;
75054;SDS011;63636;44.746;10.488;2022-09-21T06:58:00;6.15;;;2.80;;
75054;SDS011;63636;44.746;10.488;2022-09-21T07:00:27;5.30;;;2.70;;
75054;SDS011;63636;44.746;10.488;2022-09-21T07:02:52;6.78;;;2.75;;
75054;SDS011;63636;44.746;10.488;2022-09-21T07:05:18;6.03;;;2.40;;
75054;SDS011;63636;44.746;10.488;2022-09-21T07:07:44;4.88;;;2.60;;
75054;SDS011;63636;44.746;10.488;2022-09-21T07:10:09;6.68;;;2.80;;
75054;SDS011;63636;44.746;10.488;2022-09-21T07:12:35;7.53;;;2.45;;
75054;SDS011;63636;44.746;10.488;2022-09-21T07:15:01;6.05;;;2.70;;
75054;SDS011;63636;44.746;10.488;2022-09-21T07:17:33;6.43;;;2.38;;
75054;SDS011;63636;44.746;10.488;2022-09-21T07:19:59;5.85;;;2.30;;
75054;SDS011;63636;44.746;10.488;2022-09-21T07:22:32;5.30;;;2.22;;
75054;SDS011;63636;44.746;10.488;2022-09-21T07:24:58;4.43;;;2.40;;
75054;SDS011;63636;44.746;10.488;2022-09-21T07:27:24;7.15;;;2.10;;
75054;SDS011;63636;44.746;10.488;2022-09-21T07:29:50;7.07;;;2.38;;
75054;SDS011;63636;44.746;10.488;2022-09-21T07:32:15;4.85;;;2.20;;
75054;SDS011;63636;44.746;10.488;2022-09-21T07:34:42;4.00;;;2.00;;
75054;SDS011;63636;44.746;10.488;2022-09-21T07:37:07;4.18;;;1.95;;
75054;SDS011;63636;44.746;10.488;2022-09-21T07:39:33;4.03;;;1.75;;
75054;SDS011;63636;44.746;10.488;2022-09-21T07:41:59;4.95;;;1.58;;
75054;SDS011;63636;44.746;10.488;2022-09-21T07:44:25;4.63;;;1.55;;
75054;SDS011;63636;44.746;10.488;2022-09-21T07:46:51;5.82;;;1.60;;
75054;SDS011;63636;44.746;10.488;2022-09-21T07:49:17;4.78;;;1.70;;
75054;SDS011;63636;44.746;10.488;2022-09-21T07:51:42;5.03;;;1.55;;
75054;SDS011;63636;44.746;10.488;2022-09-21T07:54:08;2.88;;;1.60;;
75054;SDS011;63636;44.746;10.488;2022-09-21T07:56:38;4.03;;;1.60;;
75054;SDS011;63636;44.746;10.488;2022-09-21T07:59:04;2.75;;;1.40;;
75054;SDS011;63636;44.746;10.488;2022-09-21T08:01:39;4.10;;;1.50;;
75054;SDS011;63636;44.746;10.488;2022-09-21T08:06:31;3.85;;;1.35;;
75054;SDS011;63636;44.746;10.488;2022-09-21T08:08:58;5.07;;;1.73;;
75054;SDS011;63636;44.746;10.488;2022-09-21T08:11:24;4.70;;;1.50;;
75054;SDS011;63636;44.746;10.488;2022-09-21T08:13:54;4.72;;;1.60;;
75054;SDS011;63636;44.746;10.488;2022-09-21T08:16:20;4.70;;;1.27;;
75054;SDS011;63636;44.746;10.488;2022-09-21T08:18:46;4.25;;;1.60;;
75054;SDS011;63636;44.746;10.488;2022-09-21T08:21:12;3.53;;;1.40;;
75054;SDS011;63636;44.746;10.488;2022-09-21T08:23:38;2.72;;;1.20;;
75054;SDS011;63636;44.746;10.488;2022-09-21T08:26:07;2.25;;;1.30;;
75054;SDS011;63636;44.746;10.488;2022-09-21T08:28:35;2.33;;;1.20;;
75054;SDS011;63636;44.746;10.488;2022-09-21T08:31:01;1.88;;;1.10;;
75054;SDS011;63636;44.746;10.488;2022-09-21T08:33:27;3.90;;;1.15;;
75054;SDS011;63636;44.746;10.488;2022-09-21T08:35:53;3.15;;;1.17;;
75054;SDS011;63636;44.746;10.488;2022-09-21T08:38:19;3.95;;;1.05;;
75054;SDS011;63636;44.746;10.488;2022-09-21T08:40:44;3.70;;;1.15;;
75054;SDS011;63636;44.746;10.488;2022-09-21T08:43:11;2.65;;;1.02;;
75054;SDS011;63636;44.746;10.488;2022-09-21T08:45:38;3.25;;;1.10;;
75054;SDS011;63636;44.746;10.488;2022-09-21T08:48:08;2.05;;;1.15;;
75054;SDS011;63636;44.746;10.488;2022-09-21T08:50:39;2.50;;;1.27;;
75054;SDS011;63636;44.746;10.488;2022-09-21T08:53:08;2.45;;;1.25;;
75054;SDS011;63636;44.746;10.488;2022-09-21T08:55:35;3.67;;;1.10;;
75054;SDS011;63636;44.746;10.488;2022-09-21T08:58:01;8.43;;;1.50;;
75054;SDS011;63636;44.746;10.488;2022-09-21T09:00:26;3.85;;;1.25;;
75054;SDS011;63636;44.746;10.488;2022-09-21T09:05:37;4.90;;;1.20;;
75054;SDS011;63636;44.746;10.488;2022-09-21T09:10:56;2.80;;;1.17;;
75054;SDS011;63636;44.746;10.488;2022-09-21T09:21:02;5.25;;;1.35;;
75054;SDS011;63636;44.746;10.488;2022-09-21T09:23:31;4.15;;;1.50;;
75054;SDS011;63636;44.746;10.488;2022-09-21T09:26:01;2.90;;;1.10;;
75054;SDS011;63636;44.746;10.488;2022-09-21T09:28:29;3.60;;;1.10;;
75054;SDS011;63636;44.746;10.488;2022-09-21T09:30:59;2.92;;;1.15;;
75054;SDS011;63636;44.746;10.488;2022-09-21T09:33:27;3.05;;;1.20;;
75054;SDS011;63636;44.746;10.488;2022-09-21T09:35:57;4.85;;;1.30;;
75054;SDS011;63636;44.746;10.488;2022-09-21T09:38:26;1.83;;;1.02;;
75054;SDS011;63636;44.746;10.488;2022-09-21T09:40:55;3.58;;;1.30;;
75054;SDS011;63636;44.746;10.488;2022-09-21T09:43:43;2.80;;;1.20;;
75054;SDS011;63636;44.746;10.488;2022-09-21T09:46:25;2.88;;;1.20;;
75054;SDS011;63636;44.746;10.488;2022-09-21T09:49:02;3.53;;;1.42;;
75054;SDS011;63636;44.746;10.488;2022-09-21T09:51:30;3.88;;;1.50;;
75054;SDS011;63636;44.746;10.488;2022-09-21T09:53:59;7.90;;;1.30;;
75054;SDS011;63636;44.746;10.488;2022-09-21T09:56:25;1.65;;;1.00;;
75054;SDS011;63636;44.746;10.488;2022-09-21T09:59:00;2.83;;;1.20;;
75054;SDS011;63636;44.746;10.488;2022-09-21T10:04:20;3.22;;;1.25;;
75054;SDS011;63636;44.746;10.488;2022-09-21T10:06:45;2.17;;;0.90;;
75054;SDS011;63636;44.746;10.488;2022-09-21T10:09:18;1.83;;;1.08;;
75054;SDS011;63636;44.746;10.488;2022-09-21T10:11:44;2.53;;;0.93;;
75054;SDS011;63636;44.746;10.488;2022-09-21T10:14:12;1.40;;;0.85;;
75054;SDS011;63636;44.746;10.488;2022-09-21T10:16:40;1.20;;;0.90;;
75054;SDS011;63636;44.746;10.488;2022-09-21T10:19:11;1.88;;;0.90;;
75054;SDS011;63636;44.746;10.488;2022-09-21T10:21:39;1.20;;;0.85;;
75054;SDS011;63636;44.746;10.488;2022-09-21T10:26:46;2.03;;;1.10;;
75054;SDS011;63636;44.746;10.488;2022-09-21T10:29:27;3.38;;;1.08;;
75054;SDS011;63636;44.746;10.488;2022-09-21T10:34:23;2.10;;;1.10;;
75054;SDS011;63636;44.746;10.488;2022-09-21T10:36:50;1.67;;;0.85;;
75054;SDS011;63636;44.746;10.488;2022-09-21T10:39:29;2.25;;;1.00;;
75054;SDS011;63636;44.746;10.488;2022-09-21T10:42:02;2.08;;;1.10;;
75054;SDS011;63636;44.746;10.488;2022-09-21T10:44:33;2.38;;;0.90;;
75054;SDS011;63636;44.746;10.488;2022-09-21T10:47:02;1.10;;;0.90;;
75054;SDS011;63636;44.746;10.488;2022-09-21T10:49:29;2.00;;;1.05;;
75054;SDS011;63636;44.746;10.488;2022-09-21T10:51:56;2.33;;;0.90;;
75054;SDS011;63636;44.746;10.488;2022-09-21T10:54:29;2.75;;;1.00;;
75054;SDS011;63636;44.746;10.488;2022-09-21T10:57:01;1.90;;;0.93;;
75054;SDS011;63636;44.746;10.488;2022-09-21T10:59:28;2.72;;;1.10;;
75054;SDS011;63636;44.746;10.488;2022-09-21T11:01:55;2.88;;;1.05;;
75054;SDS011;63636;44.746;10.488;2022-09-21T11:07:08;2.63;;;1.00;;
75054;SDS011;63636;44.746;10.488;2022-09-21T11:09:40;1.73;;;0.90;;
75054;SDS011;63636;44.746;10.488;2022-09-21T11:19:56;2.20;;;1.15;;
75054;SDS011;63636;44.746;10.488;2022-09-21T11:25:01;3.28;;;1.40;;
75054;SDS011;63636;44.746;10.488;2022-09-21T11:27:31;4.30;;;1.38;;
75054;SDS011;63636;44.746;10.488;2022-09-21T11:30:00;3.65;;;1.30;;
75054;SDS011;63636;44.746;10.488;2022-09-21T11:45:47;3.78;;;1.30;;
75054;SDS011;63636;44.746;10.488;2022-09-21T12:09:04;4.50;;;1.30;;
75054;SDS011;63636;44.746;10.488;2022-09-21T12:22:11;4.82;;;1.50;;
75054;SDS011;63636;44.746;10.488;2022-09-21T12:24:45;3.63;;;1.52;;
75054;SDS011;63636;44.746;10.488;2022-09-21T12:27:28;5.20;;;1.48;;
75054;SDS011;63636;44.746;10.488;2022-09-21T12:29:57;4.28;;;1.30;;
75054;SDS011;63636;44.746;10.488;2022-09-21T12:37:52;2.97;;;1.30;;
75054;SDS011;63636;44.746;10.488;2022-09-21T12:50:21;5.30;;;1.35;;
75054;SDS011;63636;44.746;10.488;2022-09-21T12:52:49;2.22;;;1.20;;
75054;SDS011;63636;44.746;10.488;2022-09-21T12:55:21;5.55;;;1.27;;
75054;SDS011;63636;44.746;10.488;2022-09-21T13:00:33;3.80;;;1.23;;
75054;SDS011;63636;44.746;10.488;2022-09-21T13:03:10;5.07;;;1.30;;
75054;SDS011;63636;44.746;10.488;2022-09-21T13:05:39;3.85;;;1.23;;
75054;SDS011;63636;44.746;10.488;2022-09-21T13:08:09;4.68;;;1.10;;
75054;SDS011;63636;44.746;10.488;2022-09-21T13:13:15;2.83;;;1.13;;
75054;SDS011;63636;44.746;10.488;2022-09-21T13:15:46;5.75;;;1.40;;
75054;SDS011;63636;44.746;10.488;2022-09-21T13:18:34;3.60;;;1.02;;
75054;SDS011;63636;44.746;10.488;2022-09-21T13:21:22;2.72;;;1.20;;
75054;SDS011;63636;44.746;10.488;2022-09-21T13:26:18;5.75;;;1.30;;
75054;SDS011;63636;44.746;10.488;2022-09-21T13:31:28;4.63;;;1.15;;
75054;SDS011;63636;44.746;10.488;2022-09-21T13:34:18;3.92;;;1.10;;
75054;SDS011;63636;44.746;10.488;2022-09-21T13:36:48;3.88;;;1.20;;
75054;SDS011;63636;44.746;10.488;2022-09-21T13:39:30;3.08;;;1.17;;
75054;SDS011;63636;44.746;10.488;2022-09-21T13:41:56;3.45;;;1.02;;
75054;SDS011;63636;44.746;10.488;2022-09-21T13:44:38;3.63;;;1.00;;
75054;SDS011;63636;44.746;10.488;2022-09-21T13:47:05;4.38;;;1.33;;
75054;SDS011;63636;44.746;10.488;2022-09-21T13:49:37;4.45;;;1.30;;
75054;SDS011;63636;44.746;10.488;2022-09-21T13:57:06;5.72;;;1.00;;
75054;SDS011;63636;44.746;10.488;2022-09-21T13:59:38;1.92;;;0.88;;
75054;SDS011;63636;44.746;10.488;2022-09-21T14:02:17;4.65;;;1.48;;
75054;SDS011;63636;44.746;10.488;2022-09-21T14:04:45;5.28;;;1.20;;
75054;SDS011;63636;44.746;10.488;2022-09-21T14:07:13;3.25;;;1.00;;
75054;SDS011;63636;44.746;10.488;2022-09-21T14:10:00;3.83;;;1.15;;
75054;SDS011;63636;44.746;10.488;2022-09-21T14:12:25;3.47;;;0.90;;
75054;SDS011;63636;44.746;10.488;2022-09-21T14:15:37;2.85;;;1.00;;
75054;SDS011;63636;44.746;10.488;2022-09-21T14:17:38;2.03;;;0.73;;
75054;SDS011;63636;44.746;10.488;2022-09-21T14:20:05;3.17;;;1.08;;
75054;SDS011;63636;44.746;10.488;2022-09-21T14:22:47;6.22;;;1.00;;
75054;SDS011;63636;44.746;10.488;2022-09-21T14:28:08;3.45;;;1.00;;
75054;SDS011;63636;44.746;10.488;2022-09-21T14:30:35;2.83;;;1.10;;
75054;SDS011;63636;44.746;10.488;2022-09-21T14:33:07;4.13;;;1.00;;
75054;SDS011;63636;44.746;10.488;2022-09-21T14:35:42;3.42;;;1.10;;
75054;SDS011;63636;44.746;10.488;2022-09-21T14:40:38;4.40;;;1.08;;
75054;SDS011;63636;44.746;10.488;2022-09-21T14:43:18;3.25;;;1.15;;
75054;SDS011;63636;44.746;10.488;2022-09-21T14:50:50;2.35;;;0.80;;
75054;SDS011;63636;44.746;10.488;2022-09-21T15:04:43;4.72;;;1.30;;
75054;SDS011;63636;44.746;10.488;2022-09-21T15:12:30;4.40;;;1.00;;
75054;SDS011;63636;44.746;10.488;2022-09-21T15:15:03;4.70;;;0.93;;
75054;SDS011;63636;44.746;10.488;2022-09-21T15:17:30;2.88;;;0.80;;
75054;SDS011;63636;44.746;10.488;2022-09-21T15:19:56;3.50;;;0.90;;
75054;SDS011;63636;44.746;10.488;2022-09-21T15:22:23;4.30;;;1.00;;
75054;SDS011;63636;44.746;10.488;2022-09-21T15:24:53;3.95;;;1.10;;
75054;SDS011;63636;44.746;10.488;2022-09-21T15:27:21;5.28;;;0.90;;
75054;SDS011;63636;44.746;10.488;2022-09-21T15:29:48;2.53;;;0.85;;
75054;SDS011;63636;44.746;10.488;2022-09-21T15:32:35;2.05;;;0.80;;
75054;SDS011;63636;44.746;10.488;2022-09-21T15:35:02;2.03;;;0.75;;
75054;SDS011;63636;44.746;10.488;2022-09-21T15:37:28;3.10;;;1.00;;
75054;SDS011;63636;44.746;10.488;2022-09-21T15:40:05;4.35;;;0.70;;
75054;SDS011;63636;44.746;10.488;2022-09-21T15:42:38;3.25;;;1.00;;
75054;SDS011;63636;44.746;10.488;2022-09-21T15:45:14;3.15;;;0.85;;
75054;SDS011;63636;44.746;10.488;2022-09-21T15:47:39;3.92;;;0.82;;
75054;SDS011;63636;44.746;10.488;2022-09-21T15:50:15;3.25;;;0.90;;
75054;SDS011;63636;44.746;10.488;2022-09-21T15:52:46;4.88;;;0.90;;
75054;SDS011;63636;44.746;10.488;2022-09-21T15:55:16;1.83;;;0.68;;
75054;SDS011;63636;44.746;10.488;2022-09-21T15:57:46;2.47;;;0.77;;
75054;SDS011;63636;44.746;10.488;2022-09-21T16:02:39;1.42;;;0.70;;
75054;SDS011;63636;44.746;10.488;2022-09-21T16:05:06;1.92;;;0.90;;
75054;SDS011;63636;44.746;10.488;2022-09-21T16:07:33;3.83;;;0.90;;
75054;SDS011;63636;44.746;10.488;2022-09-21T16:09:59;2.35;;;0.88;;
75054;SDS011;63636;44.746;10.488;2022-09-21T16:14:53;2.08;;;0.77;;
75054;SDS011;63636;44.746;10.488;2022-09-21T16:17:25;2.65;;;0.93;;
75054;SDS011;63636;44.746;10.488;2022-09-21T16:22:22;3.65;;;1.02;;
75054;SDS011;63636;44.746;10.488;2022-09-21T16:24:52;2.75;;;1.00;;
75054;SDS011;63636;44.746;10.488;2022-09-21T16:27:21;4.20;;;1.15;;
75054;SDS011;63636;44.746;10.488;2022-09-21T16:29:47;2.20;;;0.70;;
75054;SDS011;63636;44.746;10.488;2022-09-21T16:34:46;2.83;;;1.00;;
75054;SDS011;63636;44.746;10.488;2022-09-21T16:39:50;3.42;;;0.93;;
75054;SDS011;63636;44.746;10.488;2022-09-21T16:42:17;4.95;;;1.20;;
75054;SDS011;63636;44.746;10.488;2022-09-21T16:44:43;3.00;;;1.00;;
75054;SDS011;63636;44.746;10.488;2022-09-21T16:47:16;2.10;;;0.80;;
75054;SDS011;63636;44.746;10.488;2022-09-21T16:49:47;2.78;;;0.90;;
75054;SDS011;63636;44.746;10.488;2022-09-21T16:52:12;3.03;;;0.80;;
75054;SDS011;63636;44.746;10.488;2022-09-21T16:54:40;1.30;;;0.85;;
75054;SDS011;63636;44.746;10.488;2022-09-21T16:57:09;3.42;;;1.00;;
75054;SDS011;63636;44.746;10.488;2022-09-21T16:59:36;2.88;;;1.00;;
75054;SDS011;63636;44.746;10.488;2022-09-21T17:02:02;5.25;;;0.93;;
75054;SDS011;63636;44.746;10.488;2022-09-21T17:04:29;5.43;;;2.20;;
75054;SDS011;63636;44.746;10.488;2022-09-21T17:06:55;4.75;;;1.35;;
75054;SDS011;63636;44.746;10.488;2022-09-21T17:09:22;4.47;;;0.90;;
75054;SDS011;63636;44.746;10.488;2022-09-21T17:11:48;3.45;;;0.82;;
75054;SDS011;63636;44.746;10.488;2022-09-21T17:14:15;2.33;;;0.80;;
75054;SDS011;63636;44.746;10.488;2022-09-21T17:16:43;2.60;;;0.80;;
75054;SDS011;63636;44.746;10.488;2022-09-21T17:19:09;3.45;;;0.70;;
75054;SDS011;63636;44.746;10.488;2022-09-21T17:21:34;3.88;;;0.85;;
75054;SDS011;63636;44.746;10.488;2022-09-21T17:24:00;2.95;;;0.90;;
75054;SDS011;63636;44.746;10.488;2022-09-21T17:26:25;5.40;;;1.00;;
75054;SDS011;63636;44.746;10.488;2022-09-21T17:28:52;3.20;;;1.00;;
75054;SDS011;63636;44.746;10.488;2022-09-21T17:31:18;3.67;;;0.95;;
75054;SDS011;63636;44.746;10.488;2022-09-21T17:33:47;2.70;;;1.10;;
75054;SDS011;63636;44.746;10.488;2022-09-21T17:36:15;3.35;;;1.00;;
75054;SDS011;63636;44.746;10.488;2022-09-21T17:38:41;4.45;;;1.05;;
75054;SDS011;63636;44.746;10.488;2022-09-21T17:41:13;6.88;;;1.10;;
75054;SDS011;63636;44.746;10.488;2022-09-21T17:49:00;5.38;;;1.08;;
75054;SDS011;63636;44.746;10.488;2022-09-21T17:51:26;3.50;;;0.93;;
75054;SDS011;63636;44.746;10.488;2022-09-21T17:54:10;2.47;;;1.05;;
75054;SDS011;63636;44.746;10.488;2022-09-21T17:59:22;2.55;;;0.98;;
75054;SDS011;63636;44.746;10.488;2022-09-21T18:01:51;4.35;;;1.27;;
75054;SDS011;63636;44.746;10.488;2022-09-21T18:04:16;3.03;;;1.30;;
75054;SDS011;63636;44.746;10.488;2022-09-21T18:06:43;4.38;;;1.10;;
75054;SDS011;63636;44.746;10.488;2022-09-21T18:09:09;2.50;;;1.00;;
75054;SDS011;63636;44.746;10.488;2022-09-21T18:11:41;3.22;;;1.10;;
75054;SDS011;63636;44.746;10.488;2022-09-21T18:17:03;2.65;;;1.13;;